sensor_id;sensor_type;location;lat;lon;timestamp;P1;durP1;ratioP1;P2;durP2;ratioP2
3922;SDS011;1976;51.694;6.256;2022-09-01T00:02:19;2.93;;;1.87;;
3922;SDS011;1976;51.694;6.256;2022-09-01T00:04:45;7.60;;;2.00;;
3922;SDS011;1976;51.694;6.256;2022-09-01T00:07:12;7.40;;;1.83;;
3922;SDS011;1976;51.694;6.256;2022-09-01T00:09:39;4.40;;;1.67;;
3922;SDS011;1976;51.694;6.256;2022-09-01T00:12:06;1.53;;;1.17;;
3922;SDS011;1976;51.694;6.256;2022-09-01T00:14:34;2.80;;;1.53;;
3922;SDS011;1976;51.694;6.256;2022-09-01T00:17:05;4.37;;;1.70;;
3922;SDS011;1976;51.694;6.256;2022-09-01T00:19:32;3.10;;;1.43;;
3922;SDS011;1976;51.694;6.256;2022-09-01T00:21:59;6.23;;;1.50;;
3922;SDS011;1976;51.694;6.256;2022-09-01T00:24:25;11.70;;;1.63;;
3922;SDS011;1976;51.694;6.256;2022-09-01T00:26:51;4.10;;;1.50;;
3922;SDS011;1976;51.694;6.256;2022-09-01T00:29:18;3.73;;;1.67;;
3922;SDS011;1976;51.694;6.256;2022-09-01T00:31:44;1.47;;;1.37;;
3922;SDS011;1976;51.694;6.256;2022-09-01T00:34:10;2.10;;;1.60;;
3922;SDS011;1976;51.694;6.256;2022-09-01T00:36:35;2.30;;;1.60;;
3922;SDS011;1976;51.694;6.256;2022-09-01T00:39:02;1.73;;;1.40;;
3922;SDS011;1976;51.694;6.256;2022-09-01T00:41:29;4.23;;;2.17;;
3922;SDS011;1976;51.694;6.256;2022-09-01T00:43:57;3.60;;;1.50;;
3922;SDS011;1976;51.694;6.256;2022-09-01T00:46:27;1.60;;;1.50;;
3922;SDS011;1976;51.694;6.256;2022-09-01T00:49:08;3.50;;;1.60;;
3922;SDS011;1976;51.694;6.256;2022-09-01T00:51:50;10.57;;;2.10;;
3922;SDS011;1976;51.694;6.256;2022-09-01T00:54:21;3.93;;;1.80;;
3922;SDS011;1976;51.694;6.256;2022-09-01T00:56:50;5.20;;;1.87;;
3922;SDS011;1976;51.694;6.256;2022-09-01T00:59:17;2.33;;;1.80;;
3922;SDS011;1976;51.694;6.256;2022-09-01T01:01:46;5.93;;;1.90;;
3922;SDS011;1976;51.694;6.256;2022-09-01T01:04:12;3.70;;;1.80;;
3922;SDS011;1976;51.694;6.256;2022-09-01T01:06:45;2.80;;;1.40;;
3922;SDS011;1976;51.694;6.256;2022-09-01T01:09:22;1.47;;;1.37;;
3922;SDS011;1976;51.694;6.256;2022-09-01T01:11:48;2.37;;;1.50;;
3922;SDS011;1976;51.694;6.256;2022-09-01T01:14:15;2.43;;;1.53;;
3922;SDS011;1976;51.694;6.256;2022-09-01T01:16:45;3.00;;;1.90;;
3922;SDS011;1976;51.694;6.256;2022-09-01T01:25:39;5.73;;;2.07;;
3922;SDS011;1976;51.694;6.256;2022-09-01T01:30:47;2.07;;;1.60;;
3922;SDS011;1976;51.694;6.256;2022-09-01T01:33:17;3.13;;;1.70;;
3922;SDS011;1976;51.694;6.256;2022-09-01T01:35:44;2.90;;;1.97;;
3922;SDS011;1976;51.694;6.256;2022-09-01T01:38:10;2.03;;;1.70;;
3922;SDS011;1976;51.694;6.256;2022-09-01T01:40:36;5.43;;;2.30;;
3922;SDS011;1976;51.694;6.256;2022-09-01T01:43:02;2.10;;;1.90;;
3922;SDS011;1976;51.694;6.256;2022-09-01T01:45:29;4.93;;;2.17;;
3922;SDS011;1976;51.694;6.256;2022-09-01T01:47:55;6.30;;;1.70;;
3922;SDS011;1976;51.694;6.256;2022-09-01T01:50:25;6.00;;;1.90;;
3922;SDS011;1976;51.694;6.256;2022-09-01T01:52:57;2.33;;;1.43;;
3922;SDS011;1976;51.694;6.256;2022-09-01T01:55:27;8.13;;;2.00;;
3922;SDS011;1976;51.694;6.256;2022-09-01T01:57:54;6.30;;;2.07;;
3922;SDS011;1976;51.694;6.256;2022-09-01T02:00:23;2.27;;;1.70;;
3922;SDS011;1976;51.694;6.256;2022-09-01T02:02:51;4.20;;;1.60;;
3922;SDS011;1976;51.694;6.256;2022-09-01T02:05:19;2.27;;;2.00;;
3922;SDS011;1976;51.694;6.256;2022-09-01T02:07:56;7.30;;;1.53;;
3922;SDS011;1976;51.694;6.256;2022-09-01T02:10:29;2.40;;;1.50;;
3922;SDS011;1976;51.694;6.256;2022-09-01T02:12:57;4.50;;;1.57;;
3922;SDS011;1976;51.694;6.256;2022-09-01T02:15:38;26.27;;;2.20;;
3922;SDS011;1976;51.694;6.256;2022-09-01T02:21:06;8.40;;;1.73;;
3922;SDS011;1976;51.694;6.256;2022-09-01T02:23:38;2.90;;;1.53;;
3922;SDS011;1976;51.694;6.256;2022-09-01T02:26:05;2.20;;;1.77;;
3922;SDS011;1976;51.694;6.256;2022-09-01T02:28:34;2.83;;;1.63;;
3922;SDS011;1976;51.694;6.256;2022-09-01T02:31:04;1.97;;;1.83;;
3922;SDS011;1976;51.694;6.256;2022-09-01T02:33:32;3.90;;;1.70;;
3922;SDS011;1976;51.694;6.256;2022-09-01T02:36:01;7.90;;;1.50;;
3922;SDS011;1976;51.694;6.256;2022-09-01T02:38:30;2.30;;;1.87;;
3922;SDS011;1976;51.694;6.256;2022-09-01T02:40:58;3.97;;;1.70;;
3922;SDS011;1976;51.694;6.256;2022-09-01T02:43:26;1.53;;;1.43;;
3922;SDS011;1976;51.694;6.256;2022-09-01T02:45:57;7.00;;;1.70;;
3922;SDS011;1976;51.694;6.256;2022-09-01T02:48:25;3.10;;;1.93;;
3922;SDS011;1976;51.694;6.256;2022-09-01T02:50:56;2.40;;;1.67;;
3922;SDS011;1976;51.694;6.256;2022-09-01T02:53:24;2.50;;;1.83;;
3922;SDS011;1976;51.694;6.256;2022-09-01T02:55:50;9.00;;;1.90;;
3922;SDS011;1976;51.694;6.256;2022-09-01T02:58:15;5.27;;;2.00;;
3922;SDS011;1976;51.694;6.256;2022-09-01T03:00:44;2.47;;;1.70;;
3922;SDS011;1976;51.694;6.256;2022-09-01T03:03:10;9.70;;;1.70;;
3922;SDS011;1976;51.694;6.256;2022-09-01T03:05:43;2.20;;;1.30;;
3922;SDS011;1976;51.694;6.256;2022-09-01T03:08:09;2.30;;;1.57;;
3922;SDS011;1976;51.694;6.256;2022-09-01T03:10:40;2.40;;;1.80;;
3922;SDS011;1976;51.694;6.256;2022-09-01T03:13:11;2.17;;;1.70;;
3922;SDS011;1976;51.694;6.256;2022-09-01T03:15:42;2.03;;;1.70;;
3922;SDS011;1976;51.694;6.256;2022-09-01T03:18:09;1.97;;;1.77;;
3922;SDS011;1976;51.694;6.256;2022-09-01T03:20:36;15.93;;;2.10;;
3922;SDS011;1976;51.694;6.256;2022-09-01T03:23:04;6.67;;;2.53;;
3922;SDS011;1976;51.694;6.256;2022-09-01T03:25:35;4.67;;;1.80;;
3922;SDS011;1976;51.694;6.256;2022-09-01T03:28:01;8.00;;;2.27;;
3922;SDS011;1976;51.694;6.256;2022-09-01T03:30:29;3.90;;;2.90;;
3922;SDS011;1976;51.694;6.256;2022-09-01T03:32:56;3.70;;;1.67;;
3922;SDS011;1976;51.694;6.256;2022-09-01T03:35:23;2.60;;;2.00;;
3922;SDS011;1976;51.694;6.256;2022-09-01T03:37:50;3.23;;;1.97;;
3922;SDS011;1976;51.694;6.256;2022-09-01T03:40:16;8.03;;;1.70;;
3922;SDS011;1976;51.694;6.256;2022-09-01T03:42:43;2.80;;;1.60;;
3922;SDS011;1976;51.694;6.256;2022-09-01T03:45:10;3.80;;;1.70;;
3922;SDS011;1976;51.694;6.256;2022-09-01T03:47:40;1.97;;;1.80;;
3922;SDS011;1976;51.694;6.256;2022-09-01T03:50:08;7.70;;;1.50;;
3922;SDS011;1976;51.694;6.256;2022-09-01T03:52:45;1.50;;;1.37;;
3922;SDS011;1976;51.694;6.256;2022-09-01T03:55:13;4.97;;;1.67;;
3922;SDS011;1976;51.694;6.256;2022-09-01T03:57:47;3.50;;;2.00;;
3922;SDS011;1976;51.694;6.256;2022-09-01T04:00:21;4.57;;;1.83;;
3922;SDS011;1976;51.694;6.256;2022-09-01T04:02:49;5.60;;;1.63;;
3922;SDS011;1976;51.694;6.256;2022-09-01T04:05:19;2.30;;;1.70;;
3922;SDS011;1976;51.694;6.256;2022-09-01T04:07:47;6.10;;;1.47;;
3922;SDS011;1976;51.694;6.256;2022-09-01T04:10:14;9.50;;;1.80;;
3922;SDS011;1976;51.694;6.256;2022-09-01T04:12:41;2.60;;;1.50;;
3922;SDS011;1976;51.694;6.256;2022-09-01T04:15:08;3.27;;;1.70;;
3922;SDS011;1976;51.694;6.256;2022-09-01T04:17:34;2.90;;;1.80;;
3922;SDS011;1976;51.694;6.256;2022-09-01T04:20:19;2.60;;;2.00;;
3922;SDS011;1976;51.694;6.256;2022-09-01T04:22:46;4.53;;;1.90;;
3922;SDS011;1976;51.694;6.256;2022-09-01T04:25:14;1.50;;;1.40;;
3922;SDS011;1976;51.694;6.256;2022-09-01T04:27:50;4.93;;;1.70;;
3922;SDS011;1976;51.694;6.256;2022-09-01T04:30:21;5.60;;;1.43;;
3922;SDS011;1976;51.694;6.256;2022-09-01T04:32:51;9.37;;;1.43;;
3922;SDS011;1976;51.694;6.256;2022-09-01T04:35:20;3.33;;;1.80;;
3922;SDS011;1976;51.694;6.256;2022-09-01T04:37:56;5.33;;;2.20;;
3922;SDS011;1976;51.694;6.256;2022-09-01T04:40:25;2.60;;;1.80;;
3922;SDS011;1976;51.694;6.256;2022-09-01T04:42:51;1.67;;;1.57;;
3922;SDS011;1976;51.694;6.256;2022-09-01T04:45:17;5.03;;;1.60;;
3922;SDS011;1976;51.694;6.256;2022-09-01T04:47:46;2.83;;;1.57;;
3922;SDS011;1976;51.694;6.256;2022-09-01T04:50:12;6.40;;;1.73;;
3922;SDS011;1976;51.694;6.256;2022-09-01T04:52:41;2.77;;;2.00;;
3922;SDS011;1976;51.694;6.256;2022-09-01T04:55:09;3.60;;;1.93;;
3922;SDS011;1976;51.694;6.256;2022-09-01T04:57:45;2.57;;;1.97;;
3922;SDS011;1976;51.694;6.256;2022-09-01T05:00:17;9.60;;;1.47;;
3922;SDS011;1976;51.694;6.256;2022-09-01T05:02:47;11.50;;;3.70;;
3922;SDS011;1976;51.694;6.256;2022-09-01T05:05:18;2.87;;;1.47;;
3922;SDS011;1976;51.694;6.256;2022-09-01T05:07:46;1.93;;;1.50;;
3922;SDS011;1976;51.694;6.256;2022-09-01T05:10:17;5.17;;;1.70;;
3922;SDS011;1976;51.694;6.256;2022-09-01T05:12:43;1.97;;;1.67;;
3922;SDS011;1976;51.694;6.256;2022-09-01T05:15:10;2.17;;;1.80;;
3922;SDS011;1976;51.694;6.256;2022-09-01T05:17:38;1.40;;;1.30;;
3922;SDS011;1976;51.694;6.256;2022-09-01T05:20:04;1.97;;;1.67;;
3922;SDS011;1976;51.694;6.256;2022-09-01T05:22:31;3.13;;;1.80;;
3922;SDS011;1976;51.694;6.256;2022-09-01T05:24:58;3.20;;;1.70;;
3922;SDS011;1976;51.694;6.256;2022-09-01T05:27:29;2.17;;;1.70;;
3922;SDS011;1976;51.694;6.256;2022-09-01T05:29:55;3.00;;;1.63;;
3922;SDS011;1976;51.694;6.256;2022-09-01T05:32:24;9.33;;;1.70;;
3922;SDS011;1976;51.694;6.256;2022-09-01T05:34:51;2.20;;;1.83;;
3922;SDS011;1976;51.694;6.256;2022-09-01T05:37:17;1.83;;;1.43;;
3922;SDS011;1976;51.694;6.256;2022-09-01T05:39:44;1.87;;;1.63;;
3922;SDS011;1976;51.694;6.256;2022-09-01T05:42:10;1.60;;;1.50;;
3922;SDS011;1976;51.694;6.256;2022-09-01T05:44:37;5.00;;;1.80;;
3922;SDS011;1976;51.694;6.256;2022-09-01T05:47:08;4.03;;;1.63;;
3922;SDS011;1976;51.694;6.256;2022-09-01T05:49:36;3.13;;;2.13;;
3922;SDS011;1976;51.694;6.256;2022-09-01T05:52:03;5.80;;;1.43;;
3922;SDS011;1976;51.694;6.256;2022-09-01T05:54:33;1.53;;;1.20;;
3922;SDS011;1976;51.694;6.256;2022-09-01T05:56:59;6.07;;;2.00;;
3922;SDS011;1976;51.694;6.256;2022-09-01T05:59:26;4.63;;;1.50;;
3922;SDS011;1976;51.694;6.256;2022-09-01T06:01:55;5.43;;;1.77;;
3922;SDS011;1976;51.694;6.256;2022-09-01T06:04:21;1.93;;;1.53;;
3922;SDS011;1976;51.694;6.256;2022-09-01T06:06:49;2.93;;;1.30;;
3922;SDS011;1976;51.694;6.256;2022-09-01T06:09:16;9.33;;;2.10;;
3922;SDS011;1976;51.694;6.256;2022-09-01T06:11:42;5.93;;;1.80;;
3922;SDS011;1976;51.694;6.256;2022-09-01T06:14:11;2.20;;;1.40;;
3922;SDS011;1976;51.694;6.256;2022-09-01T06:16:40;2.53;;;1.40;;
3922;SDS011;1976;51.694;6.256;2022-09-01T06:19:07;6.63;;;1.50;;
3922;SDS011;1976;51.694;6.256;2022-09-01T06:21:34;7.13;;;1.63;;
3922;SDS011;1976;51.694;6.256;2022-09-01T06:24:00;4.60;;;1.60;;
3922;SDS011;1976;51.694;6.256;2022-09-01T06:26:30;7.23;;;1.70;;
3922;SDS011;1976;51.694;6.256;2022-09-01T06:29:00;5.40;;;1.70;;
3922;SDS011;1976;51.694;6.256;2022-09-01T06:31:29;5.37;;;1.70;;
3922;SDS011;1976;51.694;6.256;2022-09-01T06:34:03;4.53;;;1.60;;
3922;SDS011;1976;51.694;6.256;2022-09-01T06:36:30;1.50;;;1.40;;
3922;SDS011;1976;51.694;6.256;2022-09-01T06:39:00;4.33;;;1.80;;
3922;SDS011;1976;51.694;6.256;2022-09-01T06:41:26;1.93;;;1.17;;
3922;SDS011;1976;51.694;6.256;2022-09-01T06:43:52;5.67;;;1.60;;
3922;SDS011;1976;51.694;6.256;2022-09-01T06:46:19;8.03;;;1.10;;
3922;SDS011;1976;51.694;6.256;2022-09-01T06:48:47;3.03;;;1.40;;
3922;SDS011;1976;51.694;6.256;2022-09-01T06:51:18;13.70;;;1.40;;
3922;SDS011;1976;51.694;6.256;2022-09-01T06:53:46;2.90;;;1.30;;
3922;SDS011;1976;51.694;6.256;2022-09-01T06:56:20;3.67;;;2.10;;
3922;SDS011;1976;51.694;6.256;2022-09-01T06:58:50;4.30;;;1.40;;
3922;SDS011;1976;51.694;6.256;2022-09-01T07:01:18;3.20;;;1.60;;
3922;SDS011;1976;51.694;6.256;2022-09-01T07:03:48;2.20;;;1.40;;
3922;SDS011;1976;51.694;6.256;2022-09-01T07:06:16;17.57;;;1.47;;
3922;SDS011;1976;51.694;6.256;2022-09-01T07:08:43;2.17;;;1.23;;
3922;SDS011;1976;51.694;6.256;2022-09-01T07:11:17;1.93;;;1.37;;
3922;SDS011;1976;51.694;6.256;2022-09-01T07:13:53;4.30;;;1.33;;
3922;SDS011;1976;51.694;6.256;2022-09-01T07:16:21;6.33;;;2.33;;
3922;SDS011;1976;51.694;6.256;2022-09-01T07:18:51;3.13;;;1.80;;
3922;SDS011;1976;51.694;6.256;2022-09-01T07:21:21;5.70;;;1.47;;
3922;SDS011;1976;51.694;6.256;2022-09-01T07:23:46;2.10;;;1.43;;
3922;SDS011;1976;51.694;6.256;2022-09-01T07:26:12;2.43;;;1.67;;
3922;SDS011;1976;51.694;6.256;2022-09-01T07:28:46;6.40;;;1.60;;
3922;SDS011;1976;51.694;6.256;2022-09-01T07:31:24;8.47;;;2.70;;
3922;SDS011;1976;51.694;6.256;2022-09-01T07:33:53;4.33;;;1.50;;
3922;SDS011;1976;51.694;6.256;2022-09-01T07:36:22;1.73;;;1.60;;
3922;SDS011;1976;51.694;6.256;2022-09-01T07:38:49;2.53;;;1.50;;
3922;SDS011;1976;51.694;6.256;2022-09-01T07:41:19;5.73;;;1.50;;
3922;SDS011;1976;51.694;6.256;2022-09-01T07:43:45;10.87;;;1.47;;
3922;SDS011;1976;51.694;6.256;2022-09-01T07:46:13;3.27;;;1.23;;
3922;SDS011;1976;51.694;6.256;2022-09-01T07:48:39;10.13;;;1.30;;
3922;SDS011;1976;51.694;6.256;2022-09-01T07:51:05;1.93;;;1.30;;
3922;SDS011;1976;51.694;6.256;2022-09-01T07:53:32;2.33;;;1.10;;
3922;SDS011;1976;51.694;6.256;2022-09-01T07:56:03;1.53;;;1.17;;
3922;SDS011;1976;51.694;6.256;2022-09-01T07:58:33;5.60;;;1.43;;
3922;SDS011;1976;51.694;6.256;2022-09-01T08:00:59;4.90;;;1.23;;
3922;SDS011;1976;51.694;6.256;2022-09-01T08:03:28;2.17;;;1.20;;
3922;SDS011;1976;51.694;6.256;2022-09-01T08:05:54;12.50;;;1.87;;
3922;SDS011;1976;51.694;6.256;2022-09-01T08:08:25;7.40;;;1.20;;
3922;SDS011;1976;51.694;6.256;2022-09-01T08:10:51;3.03;;;1.20;;
3922;SDS011;1976;51.694;6.256;2022-09-01T08:13:18;2.30;;;1.17;;
3922;SDS011;1976;51.694;6.256;2022-09-01T08:15:43;2.97;;;1.23;;
3922;SDS011;1976;51.694;6.256;2022-09-01T08:18:10;7.97;;;1.47;;
3922;SDS011;1976;51.694;6.256;2022-09-01T08:20:37;4.33;;;1.30;;
3922;SDS011;1976;51.694;6.256;2022-09-01T08:23:09;5.60;;;1.33;;
3922;SDS011;1976;51.694;6.256;2022-09-01T08:25:36;2.33;;;1.10;;
3922;SDS011;1976;51.694;6.256;2022-09-01T08:28:03;1.53;;;1.10;;
3922;SDS011;1976;51.694;6.256;2022-09-01T08:30:29;1.20;;;1.10;;
3922;SDS011;1976;51.694;6.256;2022-09-01T08:32:59;2.33;;;1.00;;
3922;SDS011;1976;51.694;6.256;2022-09-01T08:35:26;6.10;;;1.63;;
3922;SDS011;1976;51.694;6.256;2022-09-01T08:37:56;13.70;;;1.20;;
3922;SDS011;1976;51.694;6.256;2022-09-01T08:40:23;1.87;;;1.10;;
3922;SDS011;1976;51.694;6.256;2022-09-01T08:45:31;4.60;;;1.10;;
3922;SDS011;1976;51.694;6.256;2022-09-01T08:48:13;1.80;;;0.97;;
3922;SDS011;1976;51.694;6.256;2022-09-01T08:50:43;2.47;;;1.10;;
3922;SDS011;1976;51.694;6.256;2022-09-01T08:53:21;1.80;;;1.17;;
3922;SDS011;1976;51.694;6.256;2022-09-01T08:56:01;6.53;;;1.40;;
3922;SDS011;1976;51.694;6.256;2022-09-01T08:58:28;8.83;;;1.27;;
3922;SDS011;1976;51.694;6.256;2022-09-01T09:00:59;4.83;;;0.90;;
3922;SDS011;1976;51.694;6.256;2022-09-01T09:03:32;1.03;;;0.93;;
3922;SDS011;1976;51.694;6.256;2022-09-01T09:06:22;2.10;;;1.10;;
3922;SDS011;1976;51.694;6.256;2022-09-01T09:08:57;1.30;;;1.00;;
3922;SDS011;1976;51.694;6.256;2022-09-01T09:14:45;1.80;;;0.80;;
3922;SDS011;1976;51.694;6.256;2022-09-01T09:17:13;1.10;;;1.00;;
3922;SDS011;1976;51.694;6.256;2022-09-01T09:19:43;3.60;;;0.90;;
3922;SDS011;1976;51.694;6.256;2022-09-01T09:22:12;1.33;;;0.80;;
3922;SDS011;1976;51.694;6.256;2022-09-01T09:30:00;1.13;;;0.90;;
3922;SDS011;1976;51.694;6.256;2022-09-01T09:32:43;2.67;;;0.93;;
3922;SDS011;1976;51.694;6.256;2022-09-01T09:35:23;1.23;;;0.90;;
3922;SDS011;1976;51.694;6.256;2022-09-01T09:41:03;1.53;;;0.80;;
3922;SDS011;1976;51.694;6.256;2022-09-01T09:43:53;4.73;;;1.00;;
3922;SDS011;1976;51.694;6.256;2022-09-01T09:49:09;1.00;;;0.90;;
3922;SDS011;1976;51.694;6.256;2022-09-01T09:51:57;8.67;;;0.80;;
3922;SDS011;1976;51.694;6.256;2022-09-01T09:57:59;5.13;;;0.90;;
3922;SDS011;1976;51.694;6.256;2022-09-01T10:00:33;3.10;;;0.93;;
3922;SDS011;1976;51.694;6.256;2022-09-01T10:03:00;4.47;;;0.90;;
3922;SDS011;1976;51.694;6.256;2022-09-01T10:05:41;7.90;;;0.80;;
3922;SDS011;1976;51.694;6.256;2022-09-01T10:08:12;0.97;;;0.90;;
3922;SDS011;1976;51.694;6.256;2022-09-01T10:10:51;0.50;;;0.50;;
3922;SDS011;1976;51.694;6.256;2022-09-01T10:13:19;0.60;;;0.60;;
3922;SDS011;1976;51.694;6.256;2022-09-01T10:15:52;9.03;;;0.70;;
3922;SDS011;1976;51.694;6.256;2022-09-01T10:18:22;1.50;;;0.63;;
3922;SDS011;1976;51.694;6.256;2022-09-01T10:21:02;0.63;;;0.63;;
3922;SDS011;1976;51.694;6.256;2022-09-01T10:23:29;1.20;;;0.80;;
3922;SDS011;1976;51.694;6.256;2022-09-01T10:25:59;0.80;;;0.60;;
3922;SDS011;1976;51.694;6.256;2022-09-01T10:28:30;0.93;;;0.70;;
3922;SDS011;1976;51.694;6.256;2022-09-01T10:30:57;1.23;;;0.93;;
3922;SDS011;1976;51.694;6.256;2022-09-01T10:33:23;1.23;;;0.80;;
3922;SDS011;1976;51.694;6.256;2022-09-01T10:35:50;0.70;;;0.70;;
3922;SDS011;1976;51.694;6.256;2022-09-01T10:38:25;1.00;;;0.63;;
3922;SDS011;1976;51.694;6.256;2022-09-01T10:40:54;2.60;;;0.70;;
3922;SDS011;1976;51.694;6.256;2022-09-01T10:43:38;0.70;;;0.70;;
3922;SDS011;1976;51.694;6.256;2022-09-01T10:48:55;1.57;;;0.97;;
3922;SDS011;1976;51.694;6.256;2022-09-01T10:53:48;0.80;;;0.80;;
3922;SDS011;1976;51.694;6.256;2022-09-01T10:56:21;1.10;;;0.90;;
3922;SDS011;1976;51.694;6.256;2022-09-01T11:04:17;0.70;;;0.70;;
3922;SDS011;1976;51.694;6.256;2022-09-01T11:17:33;1.33;;;0.87;;
3922;SDS011;1976;51.694;6.256;2022-09-01T11:20:06;2.03;;;0.77;;
3922;SDS011;1976;51.694;6.256;2022-09-01T11:25:47;1.67;;;0.93;;
3922;SDS011;1976;51.694;6.256;2022-09-01T11:30:42;2.10;;;0.80;;
3922;SDS011;1976;51.694;6.256;2022-09-01T11:33:26;0.90;;;0.67;;
3922;SDS011;1976;51.694;6.256;2022-09-01T11:36:49;0.70;;;0.70;;
3922;SDS011;1976;51.694;6.256;2022-09-01T11:39:09;1.17;;;0.70;;
3922;SDS011;1976;51.694;6.256;2022-09-01T11:44:23;0.60;;;0.60;;
3922;SDS011;1976;51.694;6.256;2022-09-01T11:47:06;0.70;;;0.70;;
3922;SDS011;1976;51.694;6.256;2022-09-01T11:50:18;1.50;;;0.73;;
3922;SDS011;1976;51.694;6.256;2022-09-01T11:52:27;1.13;;;0.90;;
3922;SDS011;1976;51.694;6.256;2022-09-01T11:54:55;0.60;;;0.60;;
3922;SDS011;1976;51.694;6.256;2022-09-01T11:59:57;0.60;;;0.60;;
3922;SDS011;1976;51.694;6.256;2022-09-01T12:02:28;0.70;;;0.60;;
3922;SDS011;1976;51.694;6.256;2022-09-01T12:04:57;0.73;;;0.70;;
3922;SDS011;1976;51.694;6.256;2022-09-01T12:10:03;5.03;;;0.90;;
3922;SDS011;1976;51.694;6.256;2022-09-01T12:12:42;0.80;;;0.70;;
3922;SDS011;1976;51.694;6.256;2022-09-01T12:15:13;3.60;;;0.70;;
3922;SDS011;1976;51.694;6.256;2022-09-01T12:17:43;1.37;;;0.70;;
3922;SDS011;1976;51.694;6.256;2022-09-01T12:20:28;1.67;;;0.80;;
3922;SDS011;1976;51.694;6.256;2022-09-01T12:22:59;0.70;;;0.60;;
3922;SDS011;1976;51.694;6.256;2022-09-01T12:25:27;1.43;;;0.83;;
3922;SDS011;1976;51.694;6.256;2022-09-01T12:27:55;0.83;;;0.80;;
3922;SDS011;1976;51.694;6.256;2022-09-01T12:30:21;2.40;;;0.60;;
3922;SDS011;1976;51.694;6.256;2022-09-01T12:32:48;4.00;;;0.53;;
3922;SDS011;1976;51.694;6.256;2022-09-01T12:35:24;0.50;;;0.50;;
3922;SDS011;1976;51.694;6.256;2022-09-01T12:37:51;2.00;;;0.87;;
3922;SDS011;1976;51.694;6.256;2022-09-01T12:40:35;9.87;;;0.90;;
3922;SDS011;1976;51.694;6.256;2022-09-01T12:43:00;1.00;;;0.90;;
3922;SDS011;1976;51.694;6.256;2022-09-01T12:48:03;5.27;;;0.90;;
3922;SDS011;1976;51.694;6.256;2022-09-01T12:52:55;2.50;;;0.60;;
3922;SDS011;1976;51.694;6.256;2022-09-01T12:55:27;0.87;;;0.70;;
3922;SDS011;1976;51.694;6.256;2022-09-01T12:57:58;1.37;;;0.70;;
3922;SDS011;1976;51.694;6.256;2022-09-01T13:00:29;0.90;;;0.90;;
3922;SDS011;1976;51.694;6.256;2022-09-01T13:03:14;2.37;;;1.10;;
3922;SDS011;1976;51.694;6.256;2022-09-01T13:05:45;1.77;;;0.80;;
3922;SDS011;1976;51.694;6.256;2022-09-01T13:08:20;0.70;;;0.70;;
3922;SDS011;1976;51.694;6.256;2022-09-01T13:10:50;5.23;;;0.70;;
3922;SDS011;1976;51.694;6.256;2022-09-01T13:13:17;2.97;;;0.80;;
3922;SDS011;1976;51.694;6.256;2022-09-01T13:15:45;2.00;;;0.87;;
3922;SDS011;1976;51.694;6.256;2022-09-01T13:18:14;1.33;;;1.23;;
3922;SDS011;1976;51.694;6.256;2022-09-01T13:20:40;4.00;;;1.10;;
3922;SDS011;1976;51.694;6.256;2022-09-01T13:23:06;0.70;;;0.70;;
3922;SDS011;1976;51.694;6.256;2022-09-01T13:25:33;0.80;;;0.80;;
3922;SDS011;1976;51.694;6.256;2022-09-01T13:27:59;0.67;;;0.67;;
3922;SDS011;1976;51.694;6.256;2022-09-01T13:30:26;3.80;;;0.70;;
3922;SDS011;1976;51.694;6.256;2022-09-01T13:32:54;0.70;;;0.70;;
3922;SDS011;1976;51.694;6.256;2022-09-01T13:35:20;0.93;;;0.70;;
3922;SDS011;1976;51.694;6.256;2022-09-01T13:37:47;3.60;;;0.80;;
3922;SDS011;1976;51.694;6.256;2022-09-01T13:40:14;0.70;;;0.70;;
3922;SDS011;1976;51.694;6.256;2022-09-01T13:42:41;2.30;;;0.83;;
3922;SDS011;1976;51.694;6.256;2022-09-01T13:45:08;0.83;;;0.80;;
3922;SDS011;1976;51.694;6.256;2022-09-01T13:47:37;1.27;;;0.90;;
3922;SDS011;1976;51.694;6.256;2022-09-01T13:50:04;1.53;;;0.80;;
3922;SDS011;1976;51.694;6.256;2022-09-01T13:52:31;0.70;;;0.70;;
3922;SDS011;1976;51.694;6.256;2022-09-01T13:54:57;1.63;;;0.90;;
3922;SDS011;1976;51.694;6.256;2022-09-01T13:57:22;0.77;;;0.70;;
3922;SDS011;1976;51.694;6.256;2022-09-01T13:59:48;3.30;;;0.80;;
3922;SDS011;1976;51.694;6.256;2022-09-01T14:02:13;0.70;;;0.70;;
3922;SDS011;1976;51.694;6.256;2022-09-01T14:04:39;1.67;;;0.73;;
3922;SDS011;1976;51.694;6.256;2022-09-01T14:07:05;1.10;;;0.83;;
3922;SDS011;1976;51.694;6.256;2022-09-01T14:09:31;1.83;;;1.23;;
3922;SDS011;1976;51.694;6.256;2022-09-01T14:11:57;0.93;;;0.90;;
3922;SDS011;1976;51.694;6.256;2022-09-01T14:14:23;1.33;;;0.80;;
3922;SDS011;1976;51.694;6.256;2022-09-01T14:16:49;2.10;;;0.90;;
3922;SDS011;1976;51.694;6.256;2022-09-01T14:19:15;1.00;;;0.80;;
3922;SDS011;1976;51.694;6.256;2022-09-01T14:21:41;0.70;;;0.70;;
3922;SDS011;1976;51.694;6.256;2022-09-01T14:24:08;0.80;;;0.80;;
3922;SDS011;1976;51.694;6.256;2022-09-01T14:26:33;1.53;;;0.80;;
3922;SDS011;1976;51.694;6.256;2022-09-01T14:28:59;1.07;;;0.97;;
3922;SDS011;1976;51.694;6.256;2022-09-01T14:31:26;2.97;;;1.17;;
3922;SDS011;1976;51.694;6.256;2022-09-01T14:33:56;1.03;;;0.70;;
3922;SDS011;1976;51.694;6.256;2022-09-01T14:36:22;0.73;;;0.73;;
3922;SDS011;1976;51.694;6.256;2022-09-01T14:38:49;2.47;;;1.13;;
3922;SDS011;1976;51.694;6.256;2022-09-01T14:41:16;4.17;;;0.87;;
3922;SDS011;1976;51.694;6.256;2022-09-01T14:43:49;2.10;;;0.90;;
3922;SDS011;1976;51.694;6.256;2022-09-01T14:46:16;7.50;;;1.00;;
3922;SDS011;1976;51.694;6.256;2022-09-01T14:48:44;1.90;;;1.00;;
3922;SDS011;1976;51.694;6.256;2022-09-01T14:51:19;1.10;;;0.80;;
3922;SDS011;1976;51.694;6.256;2022-09-01T14:53:50;11.53;;;1.23;;
3922;SDS011;1976;51.694;6.256;2022-09-01T14:56:17;0.80;;;0.80;;
3922;SDS011;1976;51.694;6.256;2022-09-01T14:58:44;0.83;;;0.83;;
3922;SDS011;1976;51.694;6.256;2022-09-01T15:01:11;13.10;;;1.70;;
3922;SDS011;1976;51.694;6.256;2022-09-01T15:03:39;2.60;;;1.10;;
3922;SDS011;1976;51.694;6.256;2022-09-01T15:06:06;1.53;;;1.10;;
3922;SDS011;1976;51.694;6.256;2022-09-01T15:08:31;1.50;;;1.10;;
3922;SDS011;1976;51.694;6.256;2022-09-01T15:10:57;1.10;;;1.00;;
3922;SDS011;1976;51.694;6.256;2022-09-01T15:13:25;2.80;;;1.20;;
3922;SDS011;1976;51.694;6.256;2022-09-01T15:15:51;5.53;;;1.20;;
3922;SDS011;1976;51.694;6.256;2022-09-01T15:18:17;1.73;;;0.97;;
3922;SDS011;1976;51.694;6.256;2022-09-01T15:20:43;4.53;;;1.20;;
3922;SDS011;1976;51.694;6.256;2022-09-01T15:23:17;1.23;;;1.17;;
3922;SDS011;1976;51.694;6.256;2022-09-01T15:25:44;2.40;;;1.20;;
3922;SDS011;1976;51.694;6.256;2022-09-01T15:28:11;5.40;;;1.47;;
3922;SDS011;1976;51.694;6.256;2022-09-01T15:30:38;2.77;;;1.40;;
3922;SDS011;1976;51.694;6.256;2022-09-01T15:33:05;3.10;;;1.87;;
3922;SDS011;1976;51.694;6.256;2022-09-01T15:35:32;3.60;;;0.90;;
3922;SDS011;1976;51.694;6.256;2022-09-01T15:37:59;3.17;;;1.00;;
3922;SDS011;1976;51.694;6.256;2022-09-01T15:40:25;1.57;;;1.00;;
3922;SDS011;1976;51.694;6.256;2022-09-01T15:42:52;7.33;;;1.60;;
3922;SDS011;1976;51.694;6.256;2022-09-01T15:45:20;4.10;;;1.17;;
3922;SDS011;1976;51.694;6.256;2022-09-01T15:47:47;3.33;;;1.30;;
3922;SDS011;1976;51.694;6.256;2022-09-01T15:50:14;1.50;;;1.10;;
3922;SDS011;1976;51.694;6.256;2022-09-01T15:53:15;2.13;;;1.10;;
3922;SDS011;1976;51.694;6.256;2022-09-01T15:55:38;3.13;;;1.03;;
3922;SDS011;1976;51.694;6.256;2022-09-01T15:58:06;3.70;;;0.97;;
3922;SDS011;1976;51.694;6.256;2022-09-01T16:00:33;1.27;;;1.10;;
3922;SDS011;1976;51.694;6.256;2022-09-01T16:02:58;6.63;;;1.20;;
3922;SDS011;1976;51.694;6.256;2022-09-01T16:05:30;2.10;;;1.17;;
3922;SDS011;1976;51.694;6.256;2022-09-01T16:07:57;2.97;;;1.30;;
3922;SDS011;1976;51.694;6.256;2022-09-01T16:10:25;2.20;;;0.93;;
3922;SDS011;1976;51.694;6.256;2022-09-01T16:12:53;4.00;;;1.30;;
3922;SDS011;1976;51.694;6.256;2022-09-01T16:15:20;1.37;;;1.20;;
3922;SDS011;1976;51.694;6.256;2022-09-01T16:20:37;1.77;;;1.67;;
3922;SDS011;1976;51.694;6.256;2022-09-01T16:23:13;1.20;;;1.10;;
3922;SDS011;1976;51.694;6.256;2022-09-01T16:25:40;1.87;;;1.30;;
3922;SDS011;1976;51.694;6.256;2022-09-01T16:28:14;1.60;;;1.20;;
3922;SDS011;1976;51.694;6.256;2022-09-01T16:30:46;1.23;;;1.13;;
3922;SDS011;1976;51.694;6.256;2022-09-01T16:33:14;2.67;;;1.00;;
3922;SDS011;1976;51.694;6.256;2022-09-01T16:35:50;1.40;;;1.30;;
3922;SDS011;1976;51.694;6.256;2022-09-01T16:38:47;2.30;;;1.20;;
3922;SDS011;1976;51.694;6.256;2022-09-01T16:44:16;1.73;;;1.10;;
3922;SDS011;1976;51.694;6.256;2022-09-01T16:52:55;5.67;;;1.40;;
3922;SDS011;1976;51.694;6.256;2022-09-01T16:58:47;2.70;;;1.30;;